sensor_id;sensor_type;location;lat;lon;timestamp;P1;durP1;ratioP1;P2;durP2;ratioP2
25237;SDS011;13185;50.872;5.306;2022-11-15T00:01:05;17.60;;;9.50;;
25237;SDS011;13185;50.872;5.306;2022-11-15T00:03:51;14.65;;;9.57;;
25237;SDS011;13185;50.872;5.306;2022-11-15T00:06:35;16.80;;;9.30;;
25237;SDS011;13185;50.872;5.306;2022-11-15T00:09:19;12.55;;;8.63;;
25237;SDS011;13185;50.872;5.306;2022-11-15T00:12:03;19.17;;;9.60;;
25237;SDS011;13185;50.872;5.306;2022-11-15T00:14:48;13.50;;;8.93;;
25237;SDS011;13185;50.872;5.306;2022-11-15T00:17:32;10.98;;;8.48;;
25237;SDS011;13185;50.872;5.306;2022-11-15T00:20:16;11.45;;;8.32;;
25237;SDS011;13185;50.872;5.306;2022-11-15T00:23:02;13.13;;;9.02;;
25237;SDS011;13185;50.872;5.306;2022-11-15T00:25:54;14.85;;;8.77;;
25237;SDS011;13185;50.872;5.306;2022-11-15T00:28:39;14.63;;;8.75;;
25237;SDS011;13185;50.872;5.306;2022-11-15T00:31:24;13.55;;;8.68;;
25237;SDS011;13185;50.872;5.306;2022-11-15T00:34:09;10.98;;;8.07;;
25237;SDS011;13185;50.872;5.306;2022-11-15T00:36:53;13.27;;;9.50;;
25237;SDS011;13185;50.872;5.306;2022-11-15T00:39:38;14.13;;;8.27;;
25237;SDS011;13185;50.872;5.306;2022-11-15T00:42:22;12.57;;;8.18;;
25237;SDS011;13185;50.872;5.306;2022-11-15T00:45:06;12.57;;;8.77;;
25237;SDS011;13185;50.872;5.306;2022-11-15T00:47:51;13.60;;;8.20;;
25237;SDS011;13185;50.872;5.306;2022-11-15T00:50:35;13.50;;;8.60;;
25237;SDS011;13185;50.872;5.306;2022-11-15T00:53:19;13.07;;;8.95;;
25237;SDS011;13185;50.872;5.306;2022-11-15T00:56:04;15.52;;;8.30;;
25237;SDS011;13185;50.872;5.306;2022-11-15T00:58:48;13.23;;;8.45;;
25237;SDS011;13185;50.872;5.306;2022-11-15T01:01:32;12.43;;;8.45;;
25237;SDS011;13185;50.872;5.306;2022-11-15T01:04:16;13.25;;;8.32;;
25237;SDS011;13185;50.872;5.306;2022-11-15T01:07:00;13.30;;;8.05;;
25237;SDS011;13185;50.872;5.306;2022-11-15T01:09:45;15.63;;;8.68;;
25237;SDS011;13185;50.872;5.306;2022-11-15T01:12:29;14.02;;;8.68;;
25237;SDS011;13185;50.872;5.306;2022-11-15T01:15:13;12.60;;;8.65;;
25237;SDS011;13185;50.872;5.306;2022-11-15T01:17:57;13.30;;;8.38;;
25237;SDS011;13185;50.872;5.306;2022-11-15T01:20:42;14.40;;;8.80;;
25237;SDS011;13185;50.872;5.306;2022-11-15T01:23:27;13.82;;;7.97;;
25237;SDS011;13185;50.872;5.306;2022-11-15T01:26:12;13.70;;;8.45;;
25237;SDS011;13185;50.872;5.306;2022-11-15T01:28:58;10.70;;;8.70;;
25237;SDS011;13185;50.872;5.306;2022-11-15T01:31:42;10.93;;;7.85;;
25237;SDS011;13185;50.872;5.306;2022-11-15T01:34:26;15.23;;;9.73;;
25237;SDS011;13185;50.872;5.306;2022-11-15T01:37:11;14.85;;;8.43;;
25237;SDS011;13185;50.872;5.306;2022-11-15T01:39:55;11.10;;;7.82;;
25237;SDS011;13185;50.872;5.306;2022-11-15T01:42:39;12.10;;;7.70;;
25237;SDS011;13185;50.872;5.306;2022-11-15T01:45:24;13.68;;;8.75;;
25237;SDS011;13185;50.872;5.306;2022-11-15T01:48:08;13.43;;;8.13;;
25237;SDS011;13185;50.872;5.306;2022-11-15T01:50:54;10.40;;;8.20;;
25237;SDS011;13185;50.872;5.306;2022-11-15T01:53:39;11.15;;;8.48;;
25237;SDS011;13185;50.872;5.306;2022-11-15T01:56:27;12.40;;;8.80;;
25237;SDS011;13185;50.872;5.306;2022-11-15T01:59:15;11.07;;;8.25;;
25237;SDS011;13185;50.872;5.306;2022-11-15T02:01:59;11.93;;;8.50;;
25237;SDS011;13185;50.872;5.306;2022-11-15T02:04:45;11.43;;;8.40;;
25237;SDS011;13185;50.872;5.306;2022-11-15T02:07:31;12.20;;;8.02;;
25237;SDS011;13185;50.872;5.306;2022-11-15T02:10:20;13.40;;;8.65;;
25237;SDS011;13185;50.872;5.306;2022-11-15T02:13:06;9.57;;;7.35;;
25237;SDS011;13185;50.872;5.306;2022-11-15T02:15:58;11.60;;;7.50;;
25237;SDS011;13185;50.872;5.306;2022-11-15T02:19:05;10.85;;;7.72;;
25237;SDS011;13185;50.872;5.306;2022-11-15T02:25:29;9.98;;;7.05;;
25237;SDS011;13185;50.872;5.306;2022-11-15T02:32:03;13.50;;;7.40;;
25237;SDS011;13185;50.872;5.306;2022-11-15T02:37:48;11.40;;;7.20;;
25237;SDS011;13185;50.872;5.306;2022-11-15T02:41:23;10.88;;;7.20;;
25237;SDS011;13185;50.872;5.306;2022-11-15T02:44:33;11.63;;;7.07;;
25237;SDS011;13185;50.872;5.306;2022-11-15T02:47:22;10.10;;;7.03;;
25237;SDS011;13185;50.872;5.306;2022-11-15T02:50:10;8.27;;;6.30;;
25237;SDS011;13185;50.872;5.306;2022-11-15T02:52:56;10.60;;;7.10;;
25237;SDS011;13185;50.872;5.306;2022-11-15T02:55:44;8.82;;;6.60;;
25237;SDS011;13185;50.872;5.306;2022-11-15T02:58:44;8.65;;;6.93;;
25237;SDS011;13185;50.872;5.306;2022-11-15T03:01:47;9.10;;;6.03;;
25237;SDS011;13185;50.872;5.306;2022-11-15T03:11:09;11.93;;;6.50;;
25237;SDS011;13185;50.872;5.306;2022-11-15T03:14:18;8.82;;;6.45;;
25237;SDS011;13185;50.872;5.306;2022-11-15T03:17:20;9.27;;;5.88;;
25237;SDS011;13185;50.872;5.306;2022-11-15T03:20:08;7.70;;;6.05;;
25237;SDS011;13185;50.872;5.306;2022-11-15T03:22:57;11.85;;;6.30;;
25237;SDS011;13185;50.872;5.306;2022-11-15T03:25:47;10.13;;;6.45;;
25237;SDS011;13185;50.872;5.306;2022-11-15T03:28:36;7.63;;;5.93;;
25237;SDS011;13185;50.872;5.306;2022-11-15T03:31:25;13.32;;;6.78;;
25237;SDS011;13185;50.872;5.306;2022-11-15T03:34:34;9.85;;;5.90;;
25237;SDS011;13185;50.872;5.306;2022-11-15T03:37:42;7.55;;;5.65;;
25237;SDS011;13185;50.872;5.306;2022-11-15T03:40:45;9.45;;;6.60;;
25237;SDS011;13185;50.872;5.306;2022-11-15T03:46:37;9.43;;;5.97;;
25237;SDS011;13185;50.872;5.306;2022-11-15T03:49:28;10.30;;;6.07;;
25237;SDS011;13185;50.872;5.306;2022-11-15T03:52:19;8.23;;;6.00;;
25237;SDS011;13185;50.872;5.306;2022-11-15T03:55:07;7.63;;;5.70;;
25237;SDS011;13185;50.872;5.306;2022-11-15T03:57:55;8.50;;;5.72;;
25237;SDS011;13185;50.872;5.306;2022-11-15T04:00:42;7.03;;;5.90;;
25237;SDS011;13185;50.872;5.306;2022-11-15T04:03:26;7.47;;;5.97;;
25237;SDS011;13185;50.872;5.306;2022-11-15T04:06:10;10.30;;;6.07;;
25237;SDS011;13185;50.872;5.306;2022-11-15T04:08:54;8.13;;;4.90;;
25237;SDS011;13185;50.872;5.306;2022-11-15T04:11:38;6.85;;;5.43;;
25237;SDS011;13185;50.872;5.306;2022-11-15T04:14:23;7.78;;;5.93;;
25237;SDS011;13185;50.872;5.306;2022-11-15T04:17:07;8.35;;;6.00;;
25237;SDS011;13185;50.872;5.306;2022-11-15T04:19:51;9.95;;;6.13;;
25237;SDS011;13185;50.872;5.306;2022-11-15T04:22:54;6.57;;;5.80;;
25237;SDS011;13185;50.872;5.306;2022-11-15T04:26:00;10.80;;;5.47;;
25237;SDS011;13185;50.872;5.306;2022-11-15T04:28:46;8.43;;;5.32;;
25237;SDS011;13185;50.872;5.306;2022-11-15T04:34:34;6.80;;;5.22;;
25237;SDS011;13185;50.872;5.306;2022-11-15T04:37:18;7.13;;;5.60;;
25237;SDS011;13185;50.872;5.306;2022-11-15T04:40:02;6.13;;;5.22;;
25237;SDS011;13185;50.872;5.306;2022-11-15T04:42:47;8.73;;;5.88;;
25237;SDS011;13185;50.872;5.306;2022-11-15T04:45:31;10.68;;;5.82;;
25237;SDS011;13185;50.872;5.306;2022-11-15T04:50:59;7.45;;;3.47;;
25237;SDS011;13185;50.872;5.306;2022-11-15T04:53:43;3.65;;;2.45;;
25237;SDS011;13185;50.872;5.306;2022-11-15T04:56:27;1.95;;;1.40;;
25237;SDS011;13185;50.872;5.306;2022-11-15T04:59:11;3.08;;;1.52;;
25237;SDS011;13185;50.872;5.306;2022-11-15T05:01:55;2.13;;;1.38;;
25237;SDS011;13185;50.872;5.306;2022-11-15T05:04:39;2.95;;;1.48;;
25237;SDS011;13185;50.872;5.306;2022-11-15T05:07:23;4.68;;;1.25;;
25237;SDS011;13185;50.872;5.306;2022-11-15T05:10:07;2.17;;;1.40;;
25237;SDS011;13185;50.872;5.306;2022-11-15T05:12:51;2.38;;;1.50;;
25237;SDS011;13185;50.872;5.306;2022-11-15T05:15:35;3.67;;;2.10;;
25237;SDS011;13185;50.872;5.306;2022-11-15T05:18:20;4.75;;;2.30;;
25237;SDS011;13185;50.872;5.306;2022-11-15T05:21:04;4.50;;;2.53;;
25237;SDS011;13185;50.872;5.306;2022-11-15T05:23:49;4.03;;;2.55;;
25237;SDS011;13185;50.872;5.306;2022-11-15T05:26:33;6.38;;;3.10;;
25237;SDS011;13185;50.872;5.306;2022-11-15T05:29:18;4.85;;;2.75;;
25237;SDS011;13185;50.872;5.306;2022-11-15T05:32:03;5.22;;;2.47;;
25237;SDS011;13185;50.872;5.306;2022-11-15T05:34:49;4.22;;;2.53;;
25237;SDS011;13185;50.872;5.306;2022-11-15T05:37:33;4.68;;;2.40;;
25237;SDS011;13185;50.872;5.306;2022-11-15T05:40:17;7.05;;;2.53;;
25237;SDS011;13185;50.872;5.306;2022-11-15T05:43:01;5.03;;;1.75;;
25237;SDS011;13185;50.872;5.306;2022-11-15T05:45:47;2.95;;;1.70;;
25237;SDS011;13185;50.872;5.306;2022-11-15T05:48:33;3.30;;;1.80;;
25237;SDS011;13185;50.872;5.306;2022-11-15T05:51:19;2.60;;;2.00;;
25237;SDS011;13185;50.872;5.306;2022-11-15T05:54:05;2.97;;;1.38;;
25237;SDS011;13185;50.872;5.306;2022-11-15T05:56:49;3.17;;;2.08;;
25237;SDS011;13185;50.872;5.306;2022-11-15T05:59:33;3.03;;;1.83;;
25237;SDS011;13185;50.872;5.306;2022-11-15T06:02:19;3.92;;;1.90;;
25237;SDS011;13185;50.872;5.306;2022-11-15T06:05:03;4.43;;;2.95;;
25237;SDS011;13185;50.872;5.306;2022-11-15T06:07:48;5.57;;;2.50;;
25237;SDS011;13185;50.872;5.306;2022-11-15T06:10:32;4.65;;;2.70;;
25237;SDS011;13185;50.872;5.306;2022-11-15T06:13:16;4.13;;;2.10;;
25237;SDS011;13185;50.872;5.306;2022-11-15T06:16:01;4.43;;;2.40;;
25237;SDS011;13185;50.872;5.306;2022-11-15T06:18:45;3.33;;;2.20;;
25237;SDS011;13185;50.872;5.306;2022-11-15T06:21:29;3.70;;;2.22;;
25237;SDS011;13185;50.872;5.306;2022-11-15T06:24:13;5.45;;;1.88;;
25237;SDS011;13185;50.872;5.306;2022-11-15T06:26:57;5.53;;;2.05;;
25237;SDS011;13185;50.872;5.306;2022-11-15T06:29:42;6.40;;;2.33;;
25237;SDS011;13185;50.872;5.306;2022-11-15T06:35:10;3.38;;;1.50;;
25237;SDS011;13185;50.872;5.306;2022-11-15T06:37:55;5.53;;;1.73;;
25237;SDS011;13185;50.872;5.306;2022-11-15T06:40:39;4.57;;;1.30;;
25237;SDS011;13185;50.872;5.306;2022-11-15T06:43:23;3.83;;;1.40;;
25237;SDS011;13185;50.872;5.306;2022-11-15T06:46:08;4.05;;;1.88;;
25237;SDS011;13185;50.872;5.306;2022-11-15T06:48:53;2.65;;;2.15;;
25237;SDS011;13185;50.872;5.306;2022-11-15T06:51:37;4.10;;;1.60;;
25237;SDS011;13185;50.872;5.306;2022-11-15T06:54:21;3.55;;;1.67;;
25237;SDS011;13185;50.872;5.306;2022-11-15T06:57:06;4.13;;;1.88;;
25237;SDS011;13185;50.872;5.306;2022-11-15T06:59:50;3.92;;;1.42;;
25237;SDS011;13185;50.872;5.306;2022-11-15T07:02:34;5.85;;;2.13;;
25237;SDS011;13185;50.872;5.306;2022-11-15T07:05:19;4.90;;;1.70;;
25237;SDS011;13185;50.872;5.306;2022-11-15T07:08:03;4.38;;;1.98;;
25237;SDS011;13185;50.872;5.306;2022-11-15T07:10:48;2.60;;;1.85;;
25237;SDS011;13185;50.872;5.306;2022-11-15T07:13:33;3.55;;;2.30;;
25237;SDS011;13185;50.872;5.306;2022-11-15T07:16:18;5.45;;;2.30;;
25237;SDS011;13185;50.872;5.306;2022-11-15T07:19:02;3.75;;;2.45;;
25237;SDS011;13185;50.872;5.306;2022-11-15T07:21:47;3.85;;;2.78;;
25237;SDS011;13185;50.872;5.306;2022-11-15T07:24:31;4.13;;;2.42;;
25237;SDS011;13185;50.872;5.306;2022-11-15T07:27:15;2.72;;;2.25;;
25237;SDS011;13185;50.872;5.306;2022-11-15T07:29:59;4.20;;;1.90;;
25237;SDS011;13185;50.872;5.306;2022-11-15T07:32:44;3.85;;;2.08;;
25237;SDS011;13185;50.872;5.306;2022-11-15T07:35:28;3.20;;;2.22;;
25237;SDS011;13185;50.872;5.306;2022-11-15T07:38:13;4.07;;;2.58;;
25237;SDS011;13185;50.872;5.306;2022-11-15T07:40:59;7.38;;;3.05;;
25237;SDS011;13185;50.872;5.306;2022-11-15T07:43:45;5.38;;;2.70;;
25237;SDS011;13185;50.872;5.306;2022-11-15T07:46:29;5.60;;;2.67;;
25237;SDS011;13185;50.872;5.306;2022-11-15T07:49:14;6.03;;;2.80;;
25237;SDS011;13185;50.872;5.306;2022-11-15T07:51:58;3.67;;;2.17;;
25237;SDS011;13185;50.872;5.306;2022-11-15T07:54:43;5.55;;;2.47;;
25237;SDS011;13185;50.872;5.306;2022-11-15T07:57:27;2.72;;;2.13;;
25237;SDS011;13185;50.872;5.306;2022-11-15T08:00:11;4.82;;;2.30;;
25237;SDS011;13185;50.872;5.306;2022-11-15T08:03:09;3.83;;;2.10;;
25237;SDS011;13185;50.872;5.306;2022-11-15T08:05:57;4.00;;;2.45;;
25237;SDS011;13185;50.872;5.306;2022-11-15T08:08:41;5.18;;;2.17;;
25237;SDS011;13185;50.872;5.306;2022-11-15T08:11:25;3.95;;;2.20;;
25237;SDS011;13185;50.872;5.306;2022-11-15T08:14:10;2.90;;;2.13;;
25237;SDS011;13185;50.872;5.306;2022-11-15T08:16:54;2.53;;;1.65;;
25237;SDS011;13185;50.872;5.306;2022-11-15T08:19:38;2.60;;;1.73;;
25237;SDS011;13185;50.872;5.306;2022-11-15T08:22:23;3.08;;;1.25;;
25237;SDS011;13185;50.872;5.306;2022-11-15T08:25:06;2.65;;;1.40;;
25237;SDS011;13185;50.872;5.306;2022-11-15T08:27:51;3.92;;;1.15;;
25237;SDS011;13185;50.872;5.306;2022-11-15T08:30:39;4.43;;;1.10;;
25237;SDS011;13185;50.872;5.306;2022-11-15T08:33:25;4.82;;;0.90;;
25237;SDS011;13185;50.872;5.306;2022-11-15T08:36:12;2.13;;;0.75;;
25237;SDS011;13185;50.872;5.306;2022-11-15T08:38:58;3.10;;;1.00;;
25237;SDS011;13185;50.872;5.306;2022-11-15T08:41:42;1.88;;;0.52;;
25237;SDS011;13185;50.872;5.306;2022-11-15T08:44:28;2.85;;;0.82;;
25237;SDS011;13185;50.872;5.306;2022-11-15T08:47:12;4.65;;;1.00;;
25237;SDS011;13185;50.872;5.306;2022-11-15T08:49:57;2.63;;;0.80;;
25237;SDS011;13185;50.872;5.306;2022-11-15T08:52:41;3.85;;;0.77;;
25237;SDS011;13185;50.872;5.306;2022-11-15T08:55:25;2.88;;;0.65;;
25237;SDS011;13185;50.872;5.306;2022-11-15T08:58:10;3.63;;;0.70;;
25237;SDS011;13185;50.872;5.306;2022-11-15T09:00:54;7.55;;;0.90;;
25237;SDS011;13185;50.872;5.306;2022-11-15T09:03:39;3.67;;;0.85;;
25237;SDS011;13185;50.872;5.306;2022-11-15T09:06:24;2.55;;;0.80;;
25237;SDS011;13185;50.872;5.306;2022-11-15T09:09:08;3.20;;;0.70;;
25237;SDS011;13185;50.872;5.306;2022-11-15T09:11:52;7.45;;;0.68;;
25237;SDS011;13185;50.872;5.306;2022-11-15T09:14:36;1.83;;;0.43;;
25237;SDS011;13185;50.872;5.306;2022-11-15T09:17:21;1.77;;;0.50;;
25237;SDS011;13185;50.872;5.306;2022-11-15T09:20:05;5.25;;;0.73;;
25237;SDS011;13185;50.872;5.306;2022-11-15T09:22:49;4.95;;;0.60;;
25237;SDS011;13185;50.872;5.306;2022-11-15T09:25:33;6.50;;;0.82;;
25237;SDS011;13185;50.872;5.306;2022-11-15T09:28:18;3.70;;;0.60;;
25237;SDS011;13185;50.872;5.306;2022-11-15T09:31:03;5.05;;;1.20;;
25237;SDS011;13185;50.872;5.306;2022-11-15T09:33:48;7.93;;;1.17;;
25237;SDS011;13185;50.872;5.306;2022-11-15T09:36:32;4.45;;;0.80;;
25237;SDS011;13185;50.872;5.306;2022-11-15T09:39:16;6.13;;;0.90;;
25237;SDS011;13185;50.872;5.306;2022-11-15T09:42:14;6.60;;;0.90;;
25237;SDS011;13185;50.872;5.306;2022-11-15T09:51:21;4.63;;;0.40;;
25237;SDS011;13185;50.872;5.306;2022-11-15T09:54:00;4.50;;;0.80;;
25237;SDS011;13185;50.872;5.306;2022-11-15T09:56:37;1.90;;;0.90;;
25237;SDS011;13185;50.872;5.306;2022-11-15T10:01:56;7.05;;;1.02;;
25237;SDS011;13185;50.872;5.306;2022-11-15T10:09:38;1.02;;;0.47;;
25237;SDS011;13185;50.872;5.306;2022-11-15T10:12:18;3.65;;;0.57;;
25237;SDS011;13185;50.872;5.306;2022-11-15T10:14:45;3.35;;;0.60;;
25237;SDS011;13185;50.872;5.306;2022-11-15T10:17:29;3.55;;;0.45;;
25237;SDS011;13185;50.872;5.306;2022-11-15T10:20:17;4.80;;;0.80;;
25237;SDS011;13185;50.872;5.306;2022-11-15T10:22:50;5.25;;;1.17;;
25237;SDS011;13185;50.872;5.306;2022-11-15T10:27:54;6.20;;;0.90;;
25237;SDS011;13185;50.872;5.306;2022-11-15T10:30:34;5.30;;;0.60;;
25237;SDS011;13185;50.872;5.306;2022-11-15T10:38:33;5.15;;;0.82;;
25237;SDS011;13185;50.872;5.306;2022-11-15T10:41:12;3.65;;;0.50;;
25237;SDS011;13185;50.872;5.306;2022-11-15T10:43:38;3.63;;;0.60;;
25237;SDS011;13185;50.872;5.306;2022-11-15T10:51:51;5.13;;;0.63;;
25237;SDS011;13185;50.872;5.306;2022-11-15T10:54:27;6.22;;;0.90;;
25237;SDS011;13185;50.872;5.306;2022-11-15T10:57:00;7.45;;;0.60;;
25237;SDS011;13185;50.872;5.306;2022-11-15T10:59:36;4.47;;;0.63;;
25237;SDS011;13185;50.872;5.306;2022-11-15T11:02:20;1.42;;;0.38;;
25237;SDS011;13185;50.872;5.306;2022-11-15T11:04:55;3.78;;;0.57;;
25237;SDS011;13185;50.872;5.306;2022-11-15T11:07:21;2.75;;;0.50;;
25237;SDS011;13185;50.872;5.306;2022-11-15T11:09:56;3.05;;;0.50;;
25237;SDS011;13185;50.872;5.306;2022-11-15T11:12:28;2.75;;;0.45;;
25237;SDS011;13185;50.872;5.306;2022-11-15T11:14:57;3.72;;;0.50;;
25237;SDS011;13185;50.872;5.306;2022-11-15T11:20:04;4.45;;;0.93;;
25237;SDS011;13185;50.872;5.306;2022-11-15T11:33:27;2.35;;;0.68;;
25237;SDS011;13185;50.872;5.306;2022-11-15T11:42:13;8.15;;;1.25;;
25237;SDS011;13185;50.872;5.306;2022-11-15T11:44:51;2.42;;;0.50;;
25237;SDS011;13185;50.872;5.306;2022-11-15T11:47:31;9.35;;;0.98;;
25237;SDS011;13185;50.872;5.306;2022-11-15T11:50:10;4.18;;;0.50;;
25237;SDS011;13185;50.872;5.306;2022-11-15T11:52:56;3.97;;;0.88;;
25237;SDS011;13185;50.872;5.306;2022-11-15T11:55:29;4.00;;;0.70;;
25237;SDS011;13185;50.872;5.306;2022-11-15T12:03:48;5.35;;;0.75;;
25237;SDS011;13185;50.872;5.306;2022-11-15T12:09:22;6.38;;;0.50;;
25237;SDS011;13185;50.872;5.306;2022-11-15T12:14:51;2.88;;;0.60;;
25237;SDS011;13185;50.872;5.306;2022-11-15T12:17:26;7.32;;;0.90;;
25237;SDS011;13185;50.872;5.306;2022-11-15T12:19:57;3.15;;;0.80;;
25237;SDS011;13185;50.872;5.306;2022-11-15T12:22:39;4.28;;;0.75;;
25237;SDS011;13185;50.872;5.306;2022-11-15T12:27:48;7.40;;;1.25;;
25237;SDS011;13185;50.872;5.306;2022-11-15T12:30:19;5.77;;;0.90;;
25237;SDS011;13185;50.872;5.306;2022-11-15T12:32:53;3.53;;;0.55;;
25237;SDS011;13185;50.872;5.306;2022-11-15T12:35:35;4.03;;;0.50;;
25237;SDS011;13185;50.872;5.306;2022-11-15T12:38:03;3.67;;;0.77;;
25237;SDS011;13185;50.872;5.306;2022-11-15T12:40:30;5.40;;;1.00;;
25237;SDS011;13185;50.872;5.306;2022-11-15T12:43:01;5.65;;;1.10;;
25237;SDS011;13185;50.872;5.306;2022-11-15T12:45:56;4.93;;;1.08;;
25237;SDS011;13185;50.872;5.306;2022-11-15T12:51:00;5.47;;;0.73;;
25237;SDS011;13185;50.872;5.306;2022-11-15T12:58:45;6.00;;;0.60;;
25237;SDS011;13185;50.872;5.306;2022-11-15T13:06:41;4.95;;;0.70;;
25237;SDS011;13185;50.872;5.306;2022-11-15T13:11:53;4.10;;;0.57;;
25237;SDS011;13185;50.872;5.306;2022-11-15T13:30:34;1.85;;;0.60;;
25237;SDS011;13185;50.872;5.306;2022-11-15T13:33:06;2.28;;;0.50;;
25237;SDS011;13185;50.872;5.306;2022-11-15T13:35:36;2.88;;;0.65;;
25237;SDS011;13185;50.872;5.306;2022-11-15T13:38:05;2.30;;;1.23;;
25237;SDS011;13185;50.872;5.306;2022-11-15T13:40:34;2.38;;;0.47;;
25237;SDS011;13185;50.872;5.306;2022-11-15T13:43:17;2.15;;;0.65;;
25237;SDS011;13185;50.872;5.306;2022-11-15T13:49:01;2.53;;;0.70;;
25237;SDS011;13185;50.872;5.306;2022-11-15T13:51:30;3.08;;;0.60;;
25237;SDS011;13185;50.872;5.306;2022-11-15T13:56:32;1.95;;;0.30;;
25237;SDS011;13185;50.872;5.306;2022-11-15T13:58:59;6.43;;;0.80;;
25237;SDS011;13185;50.872;5.306;2022-11-15T14:01:26;2.47;;;0.70;;
25237;SDS011;13185;50.872;5.306;2022-11-15T14:03:57;1.63;;;0.55;;
25237;SDS011;13185;50.872;5.306;2022-11-15T14:06:28;1.65;;;0.63;;
25237;SDS011;13185;50.872;5.306;2022-11-15T14:09:28;5.25;;;0.65;;
25237;SDS011;13185;50.872;5.306;2022-11-15T14:11:58;2.25;;;0.60;;
25237;SDS011;13185;50.872;5.306;2022-11-15T14:14:24;3.80;;;0.90;;
25237;SDS011;13185;50.872;5.306;2022-11-15T14:16:59;3.67;;;0.63;;
25237;SDS011;13185;50.872;5.306;2022-11-15T14:24:42;3.83;;;0.63;;
25237;SDS011;13185;50.872;5.306;2022-11-15T14:27:26;5.22;;;1.10;;
25237;SDS011;13185;50.872;5.306;2022-11-15T14:29:53;2.83;;;0.57;;
25237;SDS011;13185;50.872;5.306;2022-11-15T14:32:19;4.20;;;1.00;;
25237;SDS011;13185;50.872;5.306;2022-11-15T14:35:00;1.58;;;0.65;;
25237;SDS011;13185;50.872;5.306;2022-11-15T14:37:28;1.98;;;0.60;;
25237;SDS011;13185;50.872;5.306;2022-11-15T14:39:58;3.28;;;0.77;;
25237;SDS011;13185;50.872;5.306;2022-11-15T14:42:23;2.00;;;0.70;;
25237;SDS011;13185;50.872;5.306;2022-11-15T14:44:50;3.35;;;0.65;;
25237;SDS011;13185;50.872;5.306;2022-11-15T14:47:16;2.05;;;0.70;;
25237;SDS011;13185;50.872;5.306;2022-11-15T14:49:42;1.73;;;0.60;;
25237;SDS011;13185;50.872;5.306;2022-11-15T14:52:24;1.27;;;0.60;;
25237;SDS011;13185;50.872;5.306;2022-11-15T14:54:55;3.80;;;0.80;;
25237;SDS011;13185;50.872;5.306;2022-11-15T14:57:23;7.82;;;2.90;;
25237;SDS011;13185;50.872;5.306;2022-11-15T14:59:49;5.75;;;1.70;;
25237;SDS011;13185;50.872;5.306;2022-11-15T15:02:16;2.33;;;0.73;;
25237;SDS011;13185;50.872;5.306;2022-11-15T15:04:45;6.43;;;1.10;;
25237;SDS011;13185;50.872;5.306;2022-11-15T15:07:10;4.20;;;0.90;;
25237;SDS011;13185;50.872;5.306;2022-11-15T15:09:36;2.80;;;1.00;;
25237;SDS011;13185;50.872;5.306;2022-11-15T15:12:01;4.40;;;1.35;;
25237;SDS011;13185;50.872;5.306;2022-11-15T15:14:27;2.58;;;1.27;;
25237;SDS011;13185;50.872;5.306;2022-11-15T15:16:52;3.35;;;1.08;;
25237;SDS011;13185;50.872;5.306;2022-11-15T15:19:17;3.92;;;0.80;;
25237;SDS011;13185;50.872;5.306;2022-11-15T15:21:43;4.70;;;1.20;;
25237;SDS011;13185;50.872;5.306;2022-11-15T15:24:13;2.20;;;1.30;;
25237;SDS011;13185;50.872;5.306;2022-11-15T15:26:39;1.38;;;1.08;;
25237;SDS011;13185;50.872;5.306;2022-11-15T15:29:05;4.03;;;1.17;;
25237;SDS011;13185;50.872;5.306;2022-11-15T15:31:31;2.70;;;1.00;;
25237;SDS011;13185;50.872;5.306;2022-11-15T15:33:58;2.85;;;1.15;;
25237;SDS011;13185;50.872;5.306;2022-11-15T15:36:23;3.78;;;0.90;;
25237;SDS011;13185;50.872;5.306;2022-11-15T15:38:48;3.08;;;0.90;;
25237;SDS011;13185;50.872;5.306;2022-11-15T15:41:14;1.60;;;0.98;;
25237;SDS011;13185;50.872;5.306;2022-11-15T15:43:41;2.13;;;1.58;;
25237;SDS011;13185;50.872;5.306;2022-11-15T15:46:10;2.00;;;0.93;;
25237;SDS011;13185;50.872;5.306;2022-11-15T15:48:38;2.25;;;1.00;;
25237;SDS011;13185;50.872;5.306;2022-11-15T15:51:04;3.28;;;1.73;;
25237;SDS011;13185;50.872;5.306;2022-11-15T15:53:31;3.63;;;1.40;;
25237;SDS011;13185;50.872;5.306;2022-11-15T15:55:56;6.88;;;1.58;;
25237;SDS011;13185;50.872;5.306;2022-11-15T15:58:22;5.82;;;1.58;;
25237;SDS011;13185;50.872;5.306;2022-11-15T16:00:48;2.25;;;1.10;;
25237;SDS011;13185;50.872;5.306;2022-11-15T16:03:13;1.20;;;0.80;;
25237;SDS011;13185;50.872;5.306;2022-11-15T16:05:38;3.75;;;0.80;;
25237;SDS011;13185;50.872;5.306;2022-11-15T16:08:04;0.90;;;0.70;;
25237;SDS011;13185;50.872;5.306;2022-11-15T16:10:31;2.15;;;1.10;;
25237;SDS011;13185;50.872;5.306;2022-11-15T16:12:58;2.00;;;0.77;;
25237;SDS011;13185;50.872;5.306;2022-11-15T16:15:25;1.65;;;0.70;;
25237;SDS011;13185;50.872;5.306;2022-11-15T16:17:58;4.07;;;1.13;;
25237;SDS011;13185;50.872;5.306;2022-11-15T16:20:32;4.05;;;0.93;;
25237;SDS011;13185;50.872;5.306;2022-11-15T16:23:06;2.20;;;0.93;;
25237;SDS011;13185;50.872;5.306;2022-11-15T16:25:34;4.70;;;1.20;;
25237;SDS011;13185;50.872;5.306;2022-11-15T16:28:20;1.27;;;0.90;;
25237;SDS011;13185;50.872;5.306;2022-11-15T16:30:47;3.08;;;1.00;;
25237;SDS011;13185;50.872;5.306;2022-11-15T16:33:13;2.40;;;1.30;;
25237;SDS011;13185;50.872;5.306;2022-11-15T16:35:38;4.70;;;1.45;;
25237;SDS011;13185;50.872;5.306;2022-11-15T16:38:04;3.67;;;1.60;;
25237;SDS011;13185;50.872;5.306;2022-11-15T16:40:31;5.40;;;1.50;;
25237;SDS011;13185;50.872;5.306;2022-11-15T16:42:57;3.90;;;1.30;;
25237;SDS011;13185;50.872;5.306;2022-11-15T16:45:24;2.53;;;1.55;;
25237;SDS011;13185;50.872;5.306;2022-11-15T16:47:50;4.43;;;1.40;;
25237;SDS011;13185;50.872;5.306;2022-11-15T16:50:18;4.40;;;1.77;;
25237;SDS011;13185;50.872;5.306;2022-11-15T16:52:57;3.40;;;1.88;;
25237;SDS011;13185;50.872;5.306;2022-11-15T16:55:24;2.53;;;1.80;;
25237;SDS011;13185;50.872;5.306;2022-11-15T16:57:52;3.42;;;1.90;;
25237;SDS011;13185;50.872;5.306;2022-11-15T17:00:18;4.22;;;1.77;;
25237;SDS011;13185;50.872;5.306;2022-11-15T17:02:47;3.13;;;1.77;;
25237;SDS011;13185;50.872;5.306;2022-11-15T17:05:15;2.97;;;1.98;;
25237;SDS011;13185;50.872;5.306;2022-11-15T17:07:42;3.40;;;2.33;;
25237;SDS011;13185;50.872;5.306;2022-11-15T17:10:08;3.70;;;2.25;;
25237;SDS011;13185;50.872;5.306;2022-11-15T17:12:36;6.30;;;2.33;;
25237;SDS011;13185;50.872;5.306;2022-11-15T17:15:02;4.78;;;2.30;;
25237;SDS011;13185;50.872;5.306;2022-11-15T17:17:29;3.15;;;2.20;;
25237;SDS011;13185;50.872;5.306;2022-11-15T17:19:55;3.58;;;2.00;;
25237;SDS011;13185;50.872;5.306;2022-11-15T17:22:21;6.57;;;2.17;;
25237;SDS011;13185;50.872;5.306;2022-11-15T17:24:47;2.95;;;2.05;;
25237;SDS011;13185;50.872;5.306;2022-11-15T17:27:13;2.85;;;2.50;;
25237;SDS011;13185;50.872;5.306;2022-11-15T17:29:39;6.10;;;3.10;;
25237;SDS011;13185;50.872;5.306;2022-11-15T17:32:05;4.05;;;2.20;;
25237;SDS011;13185;50.872;5.306;2022-11-15T17:34:31;2.83;;;2.45;;
25237;SDS011;13185;50.872;5.306;2022-11-15T17:36:57;4.15;;;2.20;;
25237;SDS011;13185;50.872;5.306;2022-11-15T17:39:22;3.70;;;2.47;;
25237;SDS011;13185;50.872;5.306;2022-11-15T17:41:49;3.08;;;2.78;;
25237;SDS011;13185;50.872;5.306;2022-11-15T17:44:14;3.08;;;2.20;;
25237;SDS011;13185;50.872;5.306;2022-11-15T17:46:40;3.22;;;2.55;;
25237;SDS011;13185;50.872;5.306;2022-11-15T17:49:06;5.40;;;3.22;;
25237;SDS011;13185;50.872;5.306;2022-11-15T17:51:32;3.72;;;2.85;;
25237;SDS011;13185;50.872;5.306;2022-11-15T17:53:57;4.63;;;2.60;;
25237;SDS011;13185;50.872;5.306;2022-11-15T17:56:24;3.38;;;2.45;;
25237;SDS011;13185;50.872;5.306;2022-11-15T17:58:54;6.55;;;2.92;;
25237;SDS011;13185;50.872;5.306;2022-11-15T18:01:29;4.47;;;2.58;;
25237;SDS011;13185;50.872;5.306;2022-11-15T18:03:56;4.70;;;2.80;;
25237;SDS011;13185;50.872;5.306;2022-11-15T18:06:24;3.38;;;2.70;;
25237;SDS011;13185;50.872;5.306;2022-11-15T18:08:51;3.53;;;2.90;;
25237;SDS011;13185;50.872;5.306;2022-11-15T18:11:27;2.95;;;2.53;;